sensor_id;sensor_type;location;lat;lon;timestamp;pressure;altitude;pressure_sealevel;temperature;humidity
15750;BME280;7976;52.526;13.326;2024-03-23T00:55:52;100359.75;;;8.97;100.00
15750;BME280;7976;52.526;13.326;2024-03-23T00:58:18;100359.56;;;9.01;100.00
15750;BME280;7976;52.526;13.326;2024-03-23T01:00:45;100356.06;;;9.02;100.00
15750;BME280;7976;52.526;13.326;2024-03-23T01:03:11;100360.38;;;9.03;100.00
15750;BME280;7976;52.526;13.326;2024-03-23T01:05:37;100354.19;;;9.06;100.00
15750;BME280;7976;52.526;13.326;2024-03-23T01:08:04;100355.03;;;9.06;100.00
15750;BME280;7976;52.526;13.326;2024-03-23T01:10:33;100347.19;;;9.06;100.00
15750;BME280;7976;52.526;13.326;2024-03-23T01:12:59;100341.22;;;9.04;100.00
15750;BME280;7976;52.526;13.326;2024-03-23T01:15:25;100343.81;;;9.04;100.00
15750;BME280;7976;52.526;13.326;2024-03-23T01:17:51;100349.81;;;9.06;100.00
15750;BME280;7976;52.526;13.326;2024-03-23T01:20:18;100347.19;;;9.06;100.00
15750;BME280;7976;52.526;13.326;2024-03-23T01:22:44;100341.09;;;9.07;100.00
15750;BME280;7976;52.526;13.326;2024-03-23T01:25:10;100347.03;;;9.11;100.00
15750;BME280;7976;52.526;13.326;2024-03-23T01:27:38;100340.09;;;9.10;100.00
15750;BME280;7976;52.526;13.326;2024-03-23T01:30:06;100334.94;;;9.08;100.00
15750;BME280;7976;52.526;13.326;2024-03-23T01:32:33;100324.50;;;9.08;100.00
15750;BME280;7976;52.526;13.326;2024-03-23T01:34:59;100319.28;;;9.08;100.00
15750;BME280;7976;52.526;13.326;2024-03-23T01:37:25;100308.91;;;9.07;100.00
15750;BME280;7976;52.526;13.326;2024-03-23T01:39:52;100297.47;;;9.11;100.00
15750;BME280;7976;52.526;13.326;2024-03-23T01:42:18;100293.06;;;9.11;100.00
15750;BME280;7976;52.526;13.326;2024-03-23T01:44:46;100276.56;;;9.11;100.00
15750;BME280;7976;52.526;13.326;2024-03-23T01:47:12;100284.47;;;9.09;100.00
15750;BME280;7976;52.526;13.326;2024-03-23T01:49:38;100286.22;;;9.09;100.00
15750;BME280;7976;52.526;13.326;2024-03-23T01:52:05;100283.72;;;9.06;100.00
15750;BME280;7976;52.526;13.326;2024-03-23T01:54:32;100281.94;;;9.06;100.00
15750;BME280;7976;52.526;13.326;2024-03-23T01:56:58;100284.56;;;9.06;100.00
15750;BME280;7976;52.526;13.326;2024-03-23T01:59:26;100282.13;;;9.02;100.00
15750;BME280;7976;52.526;13.326;2024-03-23T02:01:53;100276.19;;;8.98;100.00
15750;BME280;7976;52.526;13.326;2024-03-23T02:04:21;100273.69;;;8.95;100.00
15750;BME280;7976;52.526;13.326;2024-03-23T02:06:47;100271.94;;;8.96;100.00
15750;BME280;7976;52.526;13.326;2024-03-23T02:09:14;100274.44;;;8.99;100.00
15750;BME280;7976;52.526;13.326;2024-03-23T02:11:40;100276.97;;;9.00;100.00
15750;BME280;7976;52.526;13.326;2024-03-23T02:14:07;100280.50;;;8.99;100.00
15750;BME280;7976;52.526;13.326;2024-03-23T02:16:33;100278.91;;;8.95;100.00
15750;BME280;7976;52.526;13.326;2024-03-23T02:19:02;100277.44;;;8.88;100.00
15750;BME280;7976;52.526;13.326;2024-03-23T02:21:28;100272.22;;;8.88;100.00
15750;BME280;7976;52.526;13.326;2024-03-23T02:23:59;100269.66;;;8.86;100.00
15750;BME280;7976;52.526;13.326;2024-03-23T02:26:24;100265.44;;;8.84;100.00
15750;BME280;7976;52.526;13.326;2024-03-23T02:28:51;100253.34;;;8.81;100.00
15750;BME280;7976;52.526;13.326;2024-03-23T02:31:17;100264.47;;;8.86;100.00
15750;BME280;7976;52.526;13.326;2024-03-23T02:33:44;100246.94;;;8.90;100.00
15750;BME280;7976;52.526;13.326;2024-03-23T02:36:09;100245.34;;;8.86;100.00
15750;BME280;7976;52.526;13.326;2024-03-23T02:38:36;100248.06;;;8.83;100.00
15750;BME280;7976;52.526;13.326;2024-03-23T02:41:04;100238.38;;;8.86;100.00
15750;BME280;7976;52.526;13.326;2024-03-23T02:43:31;100232.13;;;8.91;100.00
15750;BME280;7976;52.526;13.326;2024-03-23T02:45:57;100226.91;;;8.91;100.00
15750;BME280;7976;52.526;13.326;2024-03-23T02:48:24;100224.38;;;8.89;100.00
15750;BME280;7976;52.526;13.326;2024-03-23T02:50:50;100222.66;;;8.88;100.00
15750;BME280;7976;52.526;13.326;2024-03-23T02:53:17;100221.84;;;8.86;100.00
15750;BME280;7976;52.526;13.326;2024-03-23T02:55:43;100216.75;;;8.83;100.00
15750;BME280;7976;52.526;13.326;2024-03-23T02:58:11;100229.06;;;8.79;100.00
15750;BME280;7976;52.526;13.326;2024-03-23T03:00:37;100234.28;;;8.79;100.00
15750;BME280;7976;52.526;13.326;2024-03-23T03:03:04;100213.41;;;8.79;100.00
15750;BME280;7976;52.526;13.326;2024-03-23T03:05:30;100223.03;;;8.79;100.00
15750;BME280;7976;52.526;13.326;2024-03-23T03:07:57;100221.44;;;8.75;100.00
15750;BME280;7976;52.526;13.326;2024-03-23T03:10:23;100220.75;;;8.70;100.00
15750;BME280;7976;52.526;13.326;2024-03-23T03:12:50;100216.56;;;8.66;100.00
15750;BME280;7976;52.526;13.326;2024-03-23T03:15:17;100204.56;;;8.62;100.00
15750;BME280;7976;52.526;13.326;2024-03-23T03:17:45;100204.69;;;8.59;100.00
15750;BME280;7976;52.526;13.326;2024-03-23T03:20:10;100198.59;;;8.58;100.00
15750;BME280;7976;52.526;13.326;2024-03-23T03:22:39;100207.22;;;8.60;100.00
15750;BME280;7976;52.526;13.326;2024-03-23T03:25:06;100200.34;;;8.58;100.00
15750;BME280;7976;52.526;13.326;2024-03-23T03:27:33;100203.75;;;8.60;100.00
15750;BME280;7976;52.526;13.326;2024-03-23T03:30:00;100199.47;;;8.59;100.00
15750;BME280;7976;52.526;13.326;2024-03-23T03:32:29;100188.50;;;8.49;100.00
15750;BME280;7976;52.526;13.326;2024-03-23T03:34:55;100178.06;;;8.49;100.00
15750;BME280;7976;52.526;13.326;2024-03-23T03:37:22;100184.09;;;8.51;100.00
15750;BME280;7976;52.526;13.326;2024-03-23T03:39:48;100186.03;;;8.46;100.00
15750;BME280;7976;52.526;13.326;2024-03-23T03:42:15;100181.88;;;8.41;100.00
15750;BME280;7976;52.526;13.326;2024-03-23T03:44:41;100177.59;;;8.40;100.00
15750;BME280;7976;52.526;13.326;2024-03-23T03:47:07;100180.13;;;8.41;100.00
15750;BME280;7976;52.526;13.326;2024-03-23T03:49:35;100185.41;;;8.40;100.00
15750;BME280;7976;52.526;13.326;2024-03-23T03:52:02;100184.72;;;8.35;100.00
15750;BME280;7976;52.526;13.326;2024-03-23T03:54:28;100179.69;;;8.30;100.00
15750;BME280;7976;52.526;13.326;2024-03-23T03:56:55;100167.59;;;8.28;100.00
15750;BME280;7976;52.526;13.326;2024-03-23T03:59:20;100166.75;;;8.27;100.00
15750;BME280;7976;52.526;13.326;2024-03-23T04:01:47;100162.50;;;8.25;100.00
15750;BME280;7976;52.526;13.326;2024-03-23T04:04:14;100164.19;;;8.26;100.00
15750;BME280;7976;52.526;13.326;2024-03-23T04:06:43;100167.72;;;8.25;100.00
15750;BME280;7976;52.526;13.326;2024-03-23T04:09:10;100148.22;;;8.12;100.00
15750;BME280;7976;52.526;13.326;2024-03-23T04:11:36;100146.69;;;8.06;100.00
15750;BME280;7976;52.526;13.326;2024-03-23T04:14:03;100155.47;;;8.04;100.00
15750;BME280;7976;52.526;13.326;2024-03-23T04:16:33;100168.56;;;8.01;100.00
15750;BME280;7976;52.526;13.326;2024-03-23T04:19:00;100176.69;;;7.93;100.00
15750;BME280;7976;52.526;13.326;2024-03-23T04:21:26;100168.13;;;7.90;100.00
15750;BME280;7976;52.526;13.326;2024-03-23T04:23:54;100171.84;;;7.83;100.00
15750;BME280;7976;52.526;13.326;2024-03-23T04:26:20;100168.59;;;7.76;100.00
15750;BME280;7976;52.526;13.326;2024-03-23T04:28:47;100164.69;;;7.64;100.00
15750;BME280;7976;52.526;13.326;2024-03-23T04:31:13;100158.72;;;7.61;100.00
15750;BME280;7976;52.526;13.326;2024-03-23T04:33:40;100160.41;;;7.62;100.00
15750;BME280;7976;52.526;13.326;2024-03-23T04:36:06;100139.53;;;7.63;100.00
15750;BME280;7976;52.526;13.326;2024-03-23T04:38:33;100139.34;;;7.70;100.00
15750;BME280;7976;52.526;13.326;2024-03-23T04:41:01;100146.28;;;7.69;100.00
15750;BME280;7976;52.526;13.326;2024-03-23T04:43:28;100142.13;;;7.65;100.00
15750;BME280;7976;52.526;13.326;2024-03-23T04:45:55;100133.13;;;7.74;100.00
15750;BME280;7976;52.526;13.326;2024-03-23T04:48:23;100125.19;;;7.77;100.00
15750;BME280;7976;52.526;13.326;2024-03-23T04:50:55;100119.19;;;7.75;100.00
15750;BME280;7976;52.526;13.326;2024-03-23T04:53:23;100113.13;;;7.74;100.00
15750;BME280;7976;52.526;13.326;2024-03-23T04:55:55;100117.38;;;7.77;100.00
15750;BME280;7976;52.526;13.326;2024-03-23T04:58:23;100120.94;;;7.74;100.00
15750;BME280;7976;52.526;13.326;2024-03-23T05:00:53;100111.38;;;7.75;100.00
15750;BME280;7976;52.526;13.326;2024-03-23T05:03:21;100110.59;;;7.73;100.00
15750;BME280;7976;52.526;13.326;2024-03-23T05:05:48;100112.50;;;7.68;100.00
15750;BME280;7976;52.526;13.326;2024-03-23T05:08:14;100113.50;;;7.63;100.00
15750;BME280;7976;52.526;13.326;2024-03-23T05:10:42;100113.41;;;7.67;100.00
15750;BME280;7976;52.526;13.326;2024-03-23T05:13:08;100102.78;;;7.73;100.00
15750;BME280;7976;52.526;13.326;2024-03-23T05:15:36;100112.19;;;7.77;100.00
15750;BME280;7976;52.526;13.326;2024-03-23T05:18:02;100105.19;;;7.77;100.00
15750;BME280;7976;52.526;13.326;2024-03-23T05:20:30;100099.09;;;7.78;100.00
15750;BME280;7976;52.526;13.326;2024-03-23T05:22:56;100102.44;;;7.82;100.00
15750;BME280;7976;52.526;13.326;2024-03-23T05:25:23;100099.97;;;7.79;100.00
15750;BME280;7976;52.526;13.326;2024-03-23T05:27:49;100096.56;;;7.77;100.00
15750;BME280;7976;52.526;13.326;2024-03-23T05:30:16;100093.94;;;7.77;100.00
15750;BME280;7976;52.526;13.326;2024-03-23T05:32:43;100091.34;;;7.77;100.00
15750;BME280;7976;52.526;13.326;2024-03-23T05:35:10;100094.84;;;7.76;100.00
15750;BME280;7976;52.526;13.326;2024-03-23T05:37:37;100092.25;;;7.76;100.00
15750;BME280;7976;52.526;13.326;2024-03-23T05:40:05;100086.47;;;7.68;100.00
15750;BME280;7976;52.526;13.326;2024-03-23T05:42:31;100081.38;;;7.64;100.00
15750;BME280;7976;52.526;13.326;2024-03-23T05:44:58;100076.09;;;7.66;100.00
15750;BME280;7976;52.526;13.326;2024-03-23T05:47:23;100060.38;;;7.69;100.00
15750;BME280;7976;52.526;13.326;2024-03-23T05:49:52;100064.44;;;7.76;100.00
15750;BME280;7976;52.526;13.326;2024-03-23T05:52:18;100065.38;;;7.75;100.00
15750;BME280;7976;52.526;13.326;2024-03-23T05:54:46;100050.00;;;7.68;100.00
15750;BME280;7976;52.526;13.326;2024-03-23T05:57:12;100061.97;;;7.73;100.00
15750;BME280;7976;52.526;13.326;2024-03-23T05:59:39;100058.50;;;7.73;100.00
15750;BME280;7976;52.526;13.326;2024-03-23T06:02:05;100048.94;;;7.73;100.00
15750;BME280;7976;52.526;13.326;2024-03-23T06:04:32;100042.00;;;7.74;100.00
15750;BME280;7976;52.526;13.326;2024-03-23T06:07:00;100028.13;;;7.73;100.00
15750;BME280;7976;52.526;13.326;2024-03-23T06:09:27;100037.56;;;7.76;100.00
15750;BME280;7976;52.526;13.326;2024-03-23T06:11:53;100036.78;;;7.74;100.00
15750;BME280;7976;52.526;13.326;2024-03-23T06:14:19;100032.34;;;7.76;100.00
15750;BME280;7976;52.526;13.326;2024-03-23T06:16:46;100017.69;;;7.73;100.00
15750;BME280;7976;52.526;13.326;2024-03-23T06:19:13;100022.66;;;7.79;100.00
15750;BME280;7976;52.526;13.326;2024-03-23T06:21:43;100021.84;;;7.79;100.00
15750;BME280;7976;52.526;13.326;2024-03-23T06:24:12;100009.59;;;7.81;100.00
15750;BME280;7976;52.526;13.326;2024-03-23T06:26:39;100012.78;;;7.89;100.00
15750;BME280;7976;52.526;13.326;2024-03-23T06:29:05;100020.59;;;7.89;100.00
15750;BME280;7976;52.526;13.326;2024-03-23T06:31:31;100018.06;;;7.86;100.00
15750;BME280;7976;52.526;13.326;2024-03-23T06:33:57;100015.59;;;7.83;100.00
15750;BME280;7976;52.526;13.326;2024-03-23T06:36:24;100021.59;;;7.85;100.00
15750;BME280;7976;52.526;13.326;2024-03-23T06:38:50;100015.59;;;7.83;100.00
15750;BME280;7976;52.526;13.326;2024-03-23T06:41:19;100014.78;;;7.81;100.00
15750;BME280;7976;52.526;13.326;2024-03-23T06:43:45;100002.69;;;7.80;100.00
15750;BME280;7976;52.526;13.326;2024-03-23T06:46:12;99995.88;;;7.76;100.00
15750;BME280;7976;52.526;13.326;2024-03-23T06:48:38;99994.88;;;7.80;100.00
15750;BME280;7976;52.526;13.326;2024-03-23T06:51:05;99995.56;;;7.85;100.00
15750;BME280;7976;52.526;13.326;2024-03-23T06:53:32;99986.94;;;7.83;100.00
15750;BME280;7976;52.526;13.326;2024-03-23T06:55:59;99990.22;;;7.88;100.00
15750;BME280;7976;52.526;13.326;2024-03-23T06:58:26;99990.28;;;7.86;100.00
15750;BME280;7976;52.526;13.326;2024-03-23T07:00:53;99982.53;;;7.85;100.00
15750;BME280;7976;52.526;13.326;2024-03-23T07:03:20;99985.69;;;7.93;100.00
15750;BME280;7976;52.526;13.326;2024-03-23T07:05:48;99984.81;;;7.92;100.00
15750;BME280;7976;52.526;13.326;2024-03-23T07:08:14;99975.81;;;8.01;100.00
15750;BME280;7976;52.526;13.326;2024-03-23T07:10:46;99984.41;;;8.03;100.00
15750;BME280;7976;52.526;13.326;2024-03-23T07:13:12;99983.88;;;7.95;100.00
15750;BME280;7976;52.526;13.326;2024-03-23T07:15:40;99974.38;;;7.94;100.00
15750;BME280;7976;52.526;13.326;2024-03-23T07:18:06;99983.31;;;7.87;100.00
15750;BME280;7976;52.526;13.326;2024-03-23T07:20:33;99981.84;;;7.80;100.00
15750;BME280;7976;52.526;13.326;2024-03-23T07:22:59;99983.38;;;7.85;100.00
15750;BME280;7976;52.526;13.326;2024-03-23T07:25:26;99975.44;;;7.88;100.00
15750;BME280;7976;52.526;13.326;2024-03-23T07:27:53;99977.31;;;7.85;100.00
15750;BME280;7976;52.526;13.326;2024-03-23T07:30:20;99971.31;;;7.83;100.00
15750;BME280;7976;52.526;13.326;2024-03-23T07:32:47;99976.53;;;7.83;100.00
15750;BME280;7976;52.526;13.326;2024-03-23T07:35:14;99971.44;;;7.80;100.00
15750;BME280;7976;52.526;13.326;2024-03-23T07:37:41;99972.91;;;7.87;100.00
15750;BME280;7976;52.526;13.326;2024-03-23T07:40:09;99969.25;;;7.91;100.00
15750;BME280;7976;52.526;13.326;2024-03-23T07:42:35;99963.97;;;7.94;100.00
15750;BME280;7976;52.526;13.326;2024-03-23T07:45:03;99965.44;;;7.99;100.00
15750;BME280;7976;52.526;13.326;2024-03-23T07:47:29;99974.47;;;7.91;100.00
15750;BME280;7976;52.526;13.326;2024-03-23T07:49:57;99958.59;;;7.75;100.00
15750;BME280;7976;52.526;13.326;2024-03-23T07:52:23;99957.19;;;7.67;100.00
15750;BME280;7976;52.526;13.326;2024-03-23T07:54:50;99951.41;;;7.58;100.00
15750;BME280;7976;52.526;13.326;2024-03-23T07:57:16;99952.28;;;7.59;100.00
15750;BME280;7976;52.526;13.326;2024-03-23T07:59:43;99953.50;;;7.72;100.00
15750;BME280;7976;52.526;13.326;2024-03-23T08:02:09;99953.56;;;7.71;100.00
15750;BME280;7976;52.526;13.326;2024-03-23T08:04:36;99955.28;;;7.72;100.00
15750;BME280;7976;52.526;13.326;2024-03-23T08:07:04;99962.09;;;7.74;100.00
15750;BME280;7976;52.526;13.326;2024-03-23T08:09:31;99956.56;;;7.83;100.00
15750;BME280;7976;52.526;13.326;2024-03-23T08:11:56;99957.34;;;7.85;100.00
15750;BME280;7976;52.526;13.326;2024-03-23T08:14:23;99949.25;;;7.70;100.00
15750;BME280;7976;52.526;13.326;2024-03-23T08:16:49;99953.81;;;7.64;100.00
15750;BME280;7976;52.526;13.326;2024-03-23T08:19:16;99943.78;;;7.54;100.00
15750;BME280;7976;52.526;13.326;2024-03-23T08:21:42;99955.28;;;7.48;100.00
15750;BME280;7976;52.526;13.326;2024-03-23T08:24:11;99939.41;;;7.33;100.00
15750;BME280;7976;52.526;13.326;2024-03-23T08:26:36;99932.84;;;7.23;100.00
15750;BME280;7976;52.526;13.326;2024-03-23T08:29:04;99943.97;;;7.26;100.00
15750;BME280;7976;52.526;13.326;2024-03-23T08:31:30;99934.81;;;7.16;100.00
15750;BME280;7976;52.526;13.326;2024-03-23T08:33:57;99939.97;;;7.18;100.00
15750;BME280;7976;52.526;13.326;2024-03-23T08:36:23;99937.31;;;7.19;100.00
15750;BME280;7976;52.526;13.326;2024-03-23T08:38:50;99931.13;;;7.22;100.00
15750;BME280;7976;52.526;13.326;2024-03-23T08:41:20;99931.13;;;7.22;100.00
15750;BME280;7976;52.526;13.326;2024-03-23T08:43:47;99941.81;;;7.14;100.00
15750;BME280;7976;52.526;13.326;2024-03-23T08:46:14;99943.75;;;7.09;100.00
15750;BME280;7976;52.526;13.326;2024-03-23T08:48:44;99949.81;;;7.08;100.00
15750;BME280;7976;52.526;13.326;2024-03-23T08:51:12;99945.38;;;7.12;100.00
15750;BME280;7976;52.526;13.326;2024-03-23T08:53:40;99940.28;;;7.09;100.00
15750;BME280;7976;52.526;13.326;2024-03-23T08:56:08;99952.50;;;7.07;100.00
15750;BME280;7976;52.526;13.326;2024-03-23T08:58:38;99951.97;;;6.97;100.00
15750;BME280;7976;52.526;13.326;2024-03-23T09:01:07;99949.59;;;6.91;100.00
15750;BME280;7976;52.526;13.326;2024-03-23T09:03:34;99947.94;;;6.89;100.00
15750;BME280;7976;52.526;13.326;2024-03-23T09:06:06;99942.34;;;6.76;100.00
15750;BME280;7976;52.526;13.326;2024-03-23T09:08:33;99950.06;;;6.53;100.00
15750;BME280;7976;52.526;13.326;2024-03-23T09:11:04;99955.88;;;6.35;100.00
15750;BME280;7976;52.526;13.326;2024-03-23T09:13:33;99950.94;;;6.27;100.00
15750;BME280;7976;52.526;13.326;2024-03-23T09:16:00;99955.50;;;6.21;100.00
15750;BME280;7976;52.526;13.326;2024-03-23T09:18:27;99965.19;;;6.16;100.00
15750;BME280;7976;52.526;13.326;2024-03-23T09:20:53;99966.75;;;6.20;100.00
15750;BME280;7976;52.526;13.326;2024-03-23T09:23:21;99961.56;;;6.20;100.00
15750;BME280;7976;52.526;13.326;2024-03-23T09:25:47;99965.13;;;6.17;100.00
15750;BME280;7976;52.526;13.326;2024-03-23T09:28:15;99971.72;;;6.27;100.00
15750;BME280;7976;52.526;13.326;2024-03-23T09:30:41;99966.47;;;6.29;100.00
15750;BME280;7976;52.526;13.326;2024-03-23T09:33:10;99969.19;;;6.26;100.00
15750;BME280;7976;52.526;13.326;2024-03-23T09:35:37;99966.56;;;6.26;100.00
15750;BME280;7976;52.526;13.326;2024-03-23T09:38:04;99972.41;;;6.32;100.00
15750;BME280;7976;52.526;13.326;2024-03-23T09:40:31;99969.00;;;6.30;100.00
15750;BME280;7976;52.526;13.326;2024-03-23T09:42:58;99974.06;;;6.35;100.00
15750;BME280;7976;52.526;13.326;2024-03-23T09:45:28;99979.06;;;6.41;100.00
15750;BME280;7976;52.526;13.326;2024-03-23T09:47:55;99983.47;;;6.39;100.00
15750;BME280;7976;52.526;13.326;2024-03-23T09:50:24;99981.94;;;6.32;100.00
15750;BME280;7976;52.526;13.326;2024-03-23T09:52:56;99982.06;;;6.29;100.00
15750;BME280;7976;52.526;13.326;2024-03-23T09:55:22;99989.03;;;6.27;100.00
15750;BME280;7976;52.526;13.326;2024-03-23T09:57:49;99993.53;;;6.22;100.00
15750;BME280;7976;52.526;13.326;2024-03-23T10:00:16;99991.03;;;6.19;100.00
15750;BME280;7976;52.526;13.326;2024-03-23T10:02:45;99987.53;;;6.20;100.00
15750;BME280;7976;52.526;13.326;2024-03-23T10:05:20;100005.75;;;6.18;100.00
15750;BME280;7976;52.526;13.326;2024-03-23T10:07:50;100021.66;;;6.09;100.00
15750;BME280;7976;52.526;13.326;2024-03-23T10:10:17;100020.09;;;6.04;100.00
15750;BME280;7976;52.526;13.326;2024-03-23T10:12:45;100026.16;;;6.03;100.00
15750;BME280;7976;52.526;13.326;2024-03-23T10:15:18;100038.34;;;6.01;100.00
15750;BME280;7976;52.526;13.326;2024-03-23T10:17:46;100038.44;;;5.98;100.00
15750;BME280;7976;52.526;13.326;2024-03-23T10:20:12;100031.75;;;5.91;100.00
15750;BME280;7976;52.526;13.326;2024-03-23T10:22:39;100024.81;;;5.90;100.00
15750;BME280;7976;52.526;13.326;2024-03-23T10:25:11;100037.66;;;5.96;100.00
15750;BME280;7976;52.526;13.326;2024-03-23T10:27:39;100040.19;;;5.97;100.00
15750;BME280;7976;52.526;13.326;2024-03-23T10:30:10;100038.31;;;6.02;100.00
15750;BME280;7976;52.526;13.326;2024-03-23T10:32:38;100044.78;;;6.17;100.00
15750;BME280;7976;52.526;13.326;2024-03-23T10:35:15;100041.00;;;6.27;100.00
15750;BME280;7976;52.526;13.326;2024-03-23T10:37:42;100046.84;;;6.33;100.00
15750;BME280;7976;52.526;13.326;2024-03-23T10:40:12;100029.69;;;6.28;100.00
15750;BME280;7976;52.526;13.326;2024-03-23T10:42:42;100048.47;;;6.38;100.00
15750;BME280;7976;52.526;13.326;2024-03-23T10:45:11;100048.19;;;6.45;100.00
15750;BME280;7976;52.526;13.326;2024-03-23T10:47:38;100043.72;;;6.50;100.00
15750;BME280;7976;52.526;13.326;2024-03-23T10:50:05;100034.19;;;6.51;100.00
15750;BME280;7976;52.526;13.326;2024-03-23T10:52:32;100042.88;;;6.50;100.00
15750;BME280;7976;52.526;13.326;2024-03-23T10:55:01;100036.78;;;6.51;100.00
15750;BME280;7976;52.526;13.326;2024-03-23T10:57:39;100038.63;;;6.47;100.00
15750;BME280;7976;52.526;13.326;2024-03-23T11:00:08;100041.06;;;6.52;100.00
15750;BME280;7976;52.526;13.326;2024-03-23T11:02:36;100039.09;;;6.58;100.00
15750;BME280;7976;52.526;13.326;2024-03-23T11:05:28;100043.03;;;6.71;100.00
15750;BME280;7976;52.526;13.326;2024-03-23T11:07:55;100046.22;;;6.79;100.00
15750;BME280;7976;52.526;13.326;2024-03-23T11:10:29;100043.63;;;6.79;100.00
15750;BME280;7976;52.526;13.326;2024-03-23T11:12:57;100040.28;;;6.76;100.00
15750;BME280;7976;52.526;13.326;2024-03-23T11:15:24;100052.22;;;6.81;100.00
15750;BME280;7976;52.526;13.326;2024-03-23T11:18:06;100046.00;;;6.85;100.00
15750;BME280;7976;52.526;13.326;2024-03-23T11:20:34;100046.47;;;6.98;100.00
15750;BME280;7976;52.526;13.326;2024-03-23T11:23:04;100055.69;;;7.06;100.00
15750;BME280;7976;52.526;13.326;2024-03-23T11:25:31;100057.38;;;7.07;100.00
15750;BME280;7976;52.526;13.326;2024-03-23T11:28:12;100038.06;;;7.14;100.00
15750;BME280;7976;52.526;13.326;2024-03-23T11:30:38;100038.69;;;7.21;100.00
15750;BME280;7976;52.526;13.326;2024-03-23T11:33:08;100053.72;;;7.37;100.00
15750;BME280;7976;52.526;13.326;2024-03-23T11:35:39;100051.75;;;7.44;100.00
15750;BME280;7976;52.526;13.326;2024-03-23T11:38:22;100060.47;;;7.66;100.00
15750;BME280;7976;52.526;13.326;2024-03-23T11:40:55;100053.53;;;7.67;100.00
15750;BME280;7976;52.526;13.326;2024-03-23T11:43:26;100039.38;;;7.74;100.00
15750;BME280;7976;52.526;13.326;2024-03-23T11:45:52;100048.38;;;7.88;100.00
15750;BME280;7976;52.526;13.326;2024-03-23T11:48:22;100052.09;;;8.04;100.00
15750;BME280;7976;52.526;13.326;2024-03-23T11:50:56;100054.91;;;8.21;100.00
15750;BME280;7976;52.526;13.326;2024-03-23T11:53:25;100053.72;;;8.30;100.00
15750;BME280;7976;52.526;13.326;2024-03-23T11:55:57;100071.66;;;8.37;100.00
15750;BME280;7976;52.526;13.326;2024-03-23T11:58:29;100058.88;;;8.31;100.00
15750;BME280;7976;52.526;13.326;2024-03-23T12:01:00;100064.03;;;8.33;100.00
15750;BME280;7976;52.526;13.326;2024-03-23T12:03:30;100071.97;;;8.30;100.00
15750;BME280;7976;52.526;13.326;2024-03-23T12:05:59;100066.25;;;8.20;100.00
15750;BME280;7976;52.526;13.326;2024-03-23T12:08:30;100072.41;;;8.18;100.00
15750;BME280;7976;52.526;13.326;2024-03-23T12:11:05;100067.84;;;8.24;100.00
15750;BME280;7976;52.526;13.326;2024-03-23T12:13:34;100069.31;;;8.31;100.00
15750;BME280;7976;52.526;13.326;2024-03-23T12:16:09;100057.41;;;8.24;100.00
15750;BME280;7976;52.526;13.326;2024-03-23T12:18:37;100068.19;;;8.15;100.00
15750;BME280;7976;52.526;13.326;2024-03-23T12:21:04;100058.34;;;8.00;100.00
15750;BME280;7976;52.526;13.326;2024-03-23T12:23:31;100061.34;;;7.90;100.00
15750;BME280;7976;52.526;13.326;2024-03-23T12:25:58;100055.00;;;7.97;100.00
15750;BME280;7976;52.526;13.326;2024-03-23T12:28:25;100056.22;;;8.10;100.00
15750;BME280;7976;52.526;13.326;2024-03-23T12:30:52;100059.44;;;8.16;100.00
15750;BME280;7976;52.526;13.326;2024-03-23T12:33:20;100043.38;;;8.28;100.00
15750;BME280;7976;52.526;13.326;2024-03-23T12:35:47;100049.72;;;8.43;100.00
15750;BME280;7976;52.526;13.326;2024-03-23T12:38:14;100051.97;;;8.52;100.00
15750;BME280;7976;52.526;13.326;2024-03-23T12:40:40;100041.63;;;8.50;100.00
15750;BME280;7976;52.526;13.326;2024-03-23T12:43:09;100045.84;;;8.53;100.00
15750;BME280;7976;52.526;13.326;2024-03-23T12:45:36;100042.16;;;8.37;100.00
15750;BME280;7976;52.526;13.326;2024-03-23T12:48:05;100042.50;;;8.28;100.00
15750;BME280;7976;52.526;13.326;2024-03-23T12:50:32;100051.50;;;8.19;100.00
15750;BME280;7976;52.526;13.326;2024-03-23T12:52:59;100034.97;;;8.20;100.00
15750;BME280;7976;52.526;13.326;2024-03-23T12:55:25;100042.63;;;8.25;100.00
15750;BME280;7976;52.526;13.326;2024-03-23T12:57:52;100038.53;;;8.18;100.00
15750;BME280;7976;52.526;13.326;2024-03-23T13:00:18;100035.94;;;8.18;100.00
15750;BME280;7976;52.526;13.326;2024-03-23T13:02:45;100046.03;;;8.27;99.70
15750;BME280;7976;52.526;13.326;2024-03-23T13:05:13;100040.34;;;8.39;99.44
15750;BME280;7976;52.526;13.326;2024-03-23T13:07:40;100044.94;;;8.54;99.45
15750;BME280;7976;52.526;13.326;2024-03-23T13:10:09;100039.59;;;8.57;99.05
15750;BME280;7976;52.526;13.326;2024-03-23T13:12:36;100046.38;;;8.61;98.83
15750;BME280;7976;52.526;13.326;2024-03-23T13:15:03;100048.09;;;8.62;99.04
15750;BME280;7976;52.526;13.326;2024-03-23T13:17:31;100039.13;;;8.69;98.70
15750;BME280;7976;52.526;13.326;2024-03-23T13:19:57;100034.94;;;8.85;98.50
15750;BME280;7976;52.526;13.326;2024-03-23T13:22:34;100041.41;;;9.17;98.26
15750;BME280;7976;52.526;13.326;2024-03-23T13:25:00;100027.38;;;9.39;97.43
15750;BME280;7976;52.526;13.326;2024-03-23T13:27:28;100021.97;;;9.62;97.18
15750;BME280;7976;52.526;13.326;2024-03-23T13:29:54;100031.22;;;9.69;95.92
15750;BME280;7976;52.526;13.326;2024-03-23T13:32:21;100017.38;;;9.67;95.36
15750;BME280;7976;52.526;13.326;2024-03-23T13:34:47;100012.06;;;9.50;94.29
15750;BME280;7976;52.526;13.326;2024-03-23T13:37:16;100021.88;;;9.45;94.23
15750;BME280;7976;52.526;13.326;2024-03-23T13:39:43;100014.50;;;9.35;93.96
15750;BME280;7976;52.526;13.326;2024-03-23T13:42:11;100009.41;;;9.32;93.09
15750;BME280;7976;52.526;13.326;2024-03-23T13:44:38;100021.09;;;9.43;93.08
15750;BME280;7976;52.526;13.326;2024-03-23T13:47:05;100016.81;;;9.61;93.11
15750;BME280;7976;52.526;13.326;2024-03-23T13:49:32;100016.41;;;9.88;92.76